地図

経路データ

SID SEASON NUMBER BASIN SUBBASIN NAME ISO_TIME NATURE LAT LON WMO_WIND WMO_PRES WMO_AGENCY TRACK_TYPE DIST2LAND LANDFALL IFLAG USA_AGENCY USA_ATCF_ID USA_LAT USA_LON USA_RECORD USA_STATUS USA_WIND USA_PRES USA_SSHS USA_R34_NE USA_R34_SE USA_R34_SW USA_R34_NW USA_R50_NE USA_R50_SE USA_R50_SW USA_R50_NW USA_R64_NE USA_R64_SE USA_R64_SW USA_R64_NW USA_POCI USA_ROCI USA_RMW USA_EYE TOKYO_LAT TOKYO_LON TOKYO_GRADE TOKYO_WIND TOKYO_PRES TOKYO_R50_DIR TOKYO_R50_LONG TOKYO_R50_SHORT TOKYO_R30_DIR TOKYO_R30_LONG TOKYO_R30_SHORT TOKYO_LAND CMA_LAT CMA_LON CMA_CAT CMA_WIND CMA_PRES HKO_LAT HKO_LON HKO_CAT HKO_WIND HKO_PRES NEWDELHI_LAT NEWDELHI_LON NEWDELHI_GRADE NEWDELHI_WIND NEWDELHI_PRES NEWDELHI_CI NEWDELHI_DP NEWDELHI_POCI REUNION_LAT REUNION_LON REUNION_TYPE REUNION_WIND REUNION_PRES REUNION_TNUM REUNION_CI REUNION_RMW REUNION_R34_NE REUNION_R34_SE REUNION_R34_SW REUNION_R34_NW REUNION_R50_NE REUNION_R50_SE REUNION_R50_SW REUNION_R50_NW REUNION_R64_NE REUNION_R64_SE REUNION_R64_SW REUNION_R64_NW BOM_LAT BOM_LON BOM_TYPE BOM_WIND BOM_PRES BOM_TNUM BOM_CI BOM_RMW BOM_R34_NE BOM_R34_SE BOM_R34_SW BOM_R34_NW BOM_R50_NE BOM_R50_SE BOM_R50_SW BOM_R50_NW BOM_R64_NE BOM_R64_SE BOM_R64_SW BOM_R64_NW BOM_ROCI BOM_POCI BOM_EYE BOM_POS_METHOD BOM_PRES_METHOD NADI_LAT NADI_LON NADI_CAT NADI_WIND NADI_PRES WELLINGTON_LAT WELLINGTON_LON WELLINGTON_WIND WELLINGTON_PRES DS824_LAT DS824_LON DS824_STAGE DS824_WIND DS824_PRES TD9636_LAT TD9636_LON TD9636_STAGE TD9636_WIND TD9636_PRES TD9635_LAT TD9635_LON TD9635_WIND TD9635_PRES TD9635_ROCI NEUMANN_LAT NEUMANN_LON NEUMANN_CLASS NEUMANN_WIND NEUMANN_PRES MLC_LAT MLC_LON MLC_CLASS MLC_WIND MLC_PRES USA_GUST BOM_GUST BOM_GUST_PER REUNION_GUST REUNION_GUST_PER USA_SEAHGT USA_SEARAD_NE USA_SEARAD_SE USA_SEARAD_SW USA_SEARAD_NW STORM_SPEED STORM_DIR
2020230N11335 2020 48 NA NA LAURA 2020-08-16 18:00:00 NR 10.9000 -25.4000 PROVISIONAL 952 952 O_____________ nhc_working_bt AL132020 10.9000 -25.4000 DB 20 -3 1012 200 60 19 263
2020230N11335 2020 48 NA NA LAURA 2020-08-16 21:00:00 NR 10.7931 -26.3502 PROVISIONAL 1059 1059 P_____________ AL132020 10.7931 -26.3502 DB 20 -3 1012 200 60 19 264
2020230N11335 2020 48 NA NA LAURA 2020-08-17 00:00:00 NR 10.7000 -27.3000 PROVISIONAL 1153 1153 O_____________ nhc_working_bt AL132020 10.7000 -27.3000 DB 20 -3 1012 200 60 19 265
2020230N11335 2020 48 NA NA LAURA 2020-08-17 03:00:00 NR 10.6347 -28.2500 PROVISIONAL 1248 1248 P_____________ AL132020 10.6347 -28.2500 DB 20 -3 1012 200 60 19 267
2020230N11335 2020 48 NA NA LAURA 2020-08-17 06:00:00 NR 10.6000 -29.2000 PROVISIONAL 1350 1350 O_____________ nhc_working_bt AL132020 10.6000 -29.2000 DB 20 -3 1012 200 60 19 268
2020230N11335 2020 48 NA NA LAURA 2020-08-17 09:00:00 NR 10.5546 -30.1353 PROVISIONAL 1442 1442 P_____________ AL132020 10.5546 -30.1353 DB 20 -3 1012 200 60 19 270
2020230N11335 2020 48 NA NA LAURA 2020-08-17 12:00:00 NR 10.6000 -31.1000 PROVISIONAL 1545 1545 O_____________ nhc_working_bt AL132020 10.6000 -31.1000 DB 20 -3 1012 200 60 20 278
2020230N11335 2020 48 NA NA LAURA 2020-08-17 15:00:00 NR 10.8201 -32.1721 PROVISIONAL 1653 1653 P_____________ AL132020 10.8201 -32.1721 DB 22 -3 1012 200 55 21 284
2020230N11335 2020 48 NA NA LAURA 2020-08-17 18:00:00 NR 11.1000 -33.2000 PROVISIONAL 1730 1715 O_____________ nhc_working_bt AL132020 11.1000 -33.2000 DB 25 1009 -3 1012 200 50 19 286
2020230N11335 2020 48 NA NA LAURA 2020-08-17 21:00:00 NR 11.3369 -34.0375 PROVISIONAL 1715 1705 P_____________ AL132020 11.3369 -34.0375 DB 25 1009 -3 1012 175 60 16 284
2020230N11335 2020 48 NA NA LAURA 2020-08-18 00:00:00 DS 11.5000 -34.8000 PROVISIONAL 1705 1679 O_____________ nhc_working_bt AL132020 11.5000 -34.8000 LO 25 1009 -3 1012 150 70 15 278
2020230N11335 2020 48 NA NA LAURA 2020-08-18 03:00:00 DS 11.5448 -35.6001 PROVISIONAL 1679 1656 P_____________ AL132020 11.5448 -35.6001 LO 25 1009 -3 1012 150 70 16 270
2020230N11335 2020 48 NA NA LAURA 2020-08-18 06:00:00 DS 11.5000 -36.4000 PROVISIONAL 1656 1627 O_____________ nhc_working_bt AL132020 11.5000 -36.4000 LO 25 1009 -3 1012 150 70 35 16 265
2020230N11335 2020 48 NA NA LAURA 2020-08-18 09:00:00 DS 11.3998 -37.2002 PROVISIONAL 1627 1603 P_____________ AL132020 11.3998 -37.2002 LO 25 1009 -3 1012 150 70 16 263
2020230N11335 2020 48 NA NA LAURA 2020-08-18 12:00:00 DS 11.3000 -38.0000 PROVISIONAL 1603 1584 O_____________ nhc_working_bt AL132020 11.3000 -38.0000 LO 25 1009 -3 1012 150 70 35 16 266
2020230N11335 2020 48 NA NA LAURA 2020-08-18 15:00:00 DS 11.2923 -38.7998 PROVISIONAL 1584 1509 P_____________ AL132020 11.2923 -38.7998 LO 25 1009 -3 1012 150 70 16 270
2020230N11335 2020 48 NA NA LAURA 2020-08-18 18:00:00 DS 11.3000 -39.6000 PROVISIONAL 1509 1428 O_____________ nhc_working_bt AL132020 11.3000 -39.6000 LO 25 1009 -3 1012 150 70 40 16 268
2020230N11335 2020 48 NA NA LAURA 2020-08-18 21:00:00 DS 11.2348 -40.4077 PROVISIONAL 1428 1355 P_____________ AL132020 11.2348 -40.4077 LO 25 1009 -3 1012 150 70 16 266
2020230N11335 2020 48 NA NA LAURA 2020-08-19 00:00:00 DS 11.2000 -41.2000 PROVISIONAL 1355 1292 O_____________ nhc_working_bt AL132020 11.2000 -41.2000 LO 25 1009 -3 1012 150 70 35 15 270
2020230N11335 2020 48 NA NA LAURA 2020-08-19 03:00:00 DS 11.2473 -41.9651 PROVISIONAL 1283 1237 P_____________ AL132020 11.2473 -41.9651 LO 25 1009 -3 1012 150 70 15 278
2020230N11335 2020 48 NA NA LAURA 2020-08-19 06:00:00 DS 11.4000 -42.7000 PROVISIONAL 1237 1202 O_____________ nhc_working_bt AL132020 11.4000 -42.7000 LO 25 1009 -3 1012 150 70 35 14 285
2020230N11335 2020 48 NA NA LAURA 2020-08-19 09:00:00 DS 11.6246 -43.3855 PROVISIONAL 1194 1170 P_____________ AL132020 11.6246 -43.3855 LO 25 1009 -3 1012 150 70 15 294
2020230N11335 2020 48 NA NA LAURA 2020-08-19 12:00:00 DS 12.0000 -44.1000 PROVISIONAL 1171 1157 O_____________ nhc_working_bt AL132020 12.0000 -44.1000 LO 25 1009 -3 1012 150 70 35 18 301
2020230N11335 2020 48 NA NA LAURA 2020-08-19 15:00:00 DS 12.5551 -44.9423 PROVISIONAL 1166 1155 P_____________ AL132020 12.5551 -44.9423 LO 25 1009 -3 1012 150 70 21 306
2020230N11335 2020 48 NA NA LAURA 2020-08-19 18:00:00 DS 13.2000 -45.8000 PROVISIONAL 1165 1160 O_____________ nhc_working_bt AL132020 13.2000 -45.8000 LO 25 1009 -3 1012 150 70 35 20 310
2020230N11335 2020 48 NA NA LAURA 2020-08-19 21:00:00 DS 13.8140 -46.5058 PROVISIONAL 1172 1164 P_____________ AL132020 13.8140 -46.5058 LO 27 1008 -3 1012 150 55 17 305
2020230N11335 2020 48 NA NA LAURA 2020-08-20 00:00:00 TS 14.2000 -47.2500 PROVISIONAL 1168 1161 O_____________ nhc_working_bt AL132020 14.4000 -47.3000 TD 30 1008 -1 1012 150 40 40 19 298
2020230N11335 2020 48 NA NA LAURA 2020-08-20 03:00:00 TS 14.6943 -48.2080 PROVISIONAL 1167 1162 P_____________ AL132020 14.9380 -48.4123 TD 30 1008 -1 1011 150 40 21 297
2020230N11335 2020 48 NA NA LAURA 2020-08-20 06:00:00 TS 15.1600 -49.1800 PROVISIONAL 1176 1163 O_____________ nhc_working_bt AL132020 15.4000 -49.6000 TD 30 1008 -1 1011 150 40 40 20 294
2020230N11335 2020 48 NA NA LAURA 2020-08-20 09:00:00 TS 15.5203 -50.1241 PROVISIONAL 1164 1158 P_____________ AL132020 15.7869 -50.6379 TD 30 1008 -1 1011 135 40 20 290
2020230N11335 2020 48 NA NA LAURA 2020-08-20 12:00:00 TS 15.8333 -51.1333 PROVISIONAL 1159 1136 O_____________ nhc_working_bt AL132020 16.1000 -51.6000 TD 30 1008 -1 1011 120 40 40 21 288
2020230N11335 2020 48 NA NA LAURA 2020-08-20 15:00:00 TS 16.1619 -52.1445 PROVISIONAL 1142 1066 P_____________ AL132020 16.3866 -52.4927 TD 30 1008 -1 1010 120 40 21 288
2020230N11335 2020 48 NA NA LAURA 2020-08-20 18:00:00 TS 16.4667 -53.2000 PROVISIONAL 1064 987 O_____________ nhc_working_bt AL132020 16.6000 -53.4000 TD 30 1008 -1 1010 120 40 40 22 286
2020230N11335 2020 48 NA NA LAURA 2020-08-20 21:00:00 TS 16.7584 -54.3599 PROVISIONAL 987 928 P_____________ AL132020 16.7299 -54.4353 TD 30 1008 -1 1011 110 50 23 284
2020230N11335 2020 48 NA NA LAURA 2020-08-21 00:00:00 TS 17.0000 -55.5000 PROVISIONAL 921 880 O_____________ nhc_working_bt AL132020 16.8000 -55.5000 TD 30 1008 -1 1012 100 60 40 21 283
2020230N11335 2020 48 NA NA LAURA 2020-08-21 03:00:00 TS 17.2115 -56.4865 PROVISIONAL 874 834 P_____________ AL132020 16.8570 -56.5152 TD 30 1008 -1 1011 100 65 19 279
2020230N11335 2020 48 NA NA LAURA 2020-08-21 06:00:00 TS 17.3000 -57.4333 PROVISIONAL 834 770 O_____________ nhc_working_bt AL132020 16.9000 -57.5000 TD 30 1008 -1 1011 100 70 40 19 269
2020230N11335 2020 48 NA NA LAURA 2020-08-21 09:00:00 TS 17.1652 -58.4886 PROVISIONAL 760 670 P_____________ AL132020 16.9498 -58.4875 TD 35 1008 0 65 1011 100 65 20 261
2020230N11335 2020 48 NA NA LAURA 2020-08-21 12:00:00 TS 17.0000 -59.4667 PROVISIONAL 660 587 O_____________ nhc_working_bt AL132020 17.0000 -59.4000 TS 40 1008 0 130 1011 100 60 50 16 266
2020230N11335 2020 48 NA NA LAURA 2020-08-21 15:00:00 TS 17.0464 -60.2001 PROVISIONAL 587 513 P_____________ AL132020 17.0716 -60.1573 TS 40 1007 0 115 1011 100 60 14 274
2020230N11335 2020 48 NA CS LAURA 2020-08-21 18:00:00 TS 17.1000 -60.9000 PROVISIONAL 513 434 O_____________ nhc_working_bt AL132020 17.1000 -60.9000 TS 40 1007 0 100 60 1011 100 60 50 12 60 15 266
2020230N11335 2020 48 NA CS LAURA 2020-08-21 21:00:00 TS 16.9316 -61.7737 PROVISIONAL 428 354 P_____________ AL132020 16.9699 -61.7785 TS 40 1007 0 140 1011 110 80 12 60 17 261
2020230N11335 2020 48 NA CS LAURA 2020-08-22 00:00:00 TS 16.8333 -62.7000 PROVISIONAL 345 245 O_____________ nhc_working_bt AL132020 16.9000 -62.7000 TS 40 1008 0 180 180 1011 120 100 50 12 60 18 275
2020230N11335 2020 48 NA CS LAURA 2020-08-22 03:00:00 TS 17.0740 -63.6190 PROVISIONAL 245 146 P_____________ AL132020 17.1125 -63.6292 TS 37 1008 0 180 180 1011 120 100 12 75 18 288
2020230N11335 2020 48 NA CS LAURA 2020-08-22 06:00:00 TS 17.4000 -64.5000 PROVISIONAL 146 77 O_____________ nhc_working_bt AL132020 17.4000 -64.5000 TS 35 1008 0 180 180 1011 120 100 45 12 90 30 30 17 287
2020230N11335 2020 48 NA CS LAURA 2020-08-22 09:00:00 TS 17.5770 -65.2920 PROVISIONAL 69 30 P_____________ AL132020 17.5717 -65.2153 TS 35 1007 0 180 180 1010 120 100 12 90 30 30 15 282
2020230N11335 2020 48 NA CS LAURA 2020-08-22 12:00:00 TS 17.7000 -66.0333 PROVISIONAL 30 22 O_____________ nhc_working_bt AL132020 17.7000 -65.9000 TS 35 1006 0 180 180 1010 120 100 45 12 90 30 30 14 279
2020230N11335 2020 48 NA CS LAURA 2020-08-22 15:00:00 TS 17.7948 -66.7845 PROVISIONAL 15 0 P_____________ AL132020 17.8001 -66.7077 TS 40 1005 0 180 180 1010 120 90 12 90 30 30 14 278
2020230N11335 2020 48 NA CS LAURA 2020-08-22 18:00:00 TS 17.9000 -67.5000 PROVISIONAL 31 31 O_____________ nhc_working_bt AL132020 17.9000 -67.5000 TS 45 1004 0 180 180 1010 120 80 55 12 90 30 30 13 282
2020230N11335 2020 48 NA CS LAURA 2020-08-22 21:00:00 TS 18.0754 -68.1575 PROVISIONAL 38 0 P_____________ AL132020 18.0419 -68.1576 TS 45 1004 0 150 150 1010 120 70 12 120 30 30 13 287
2020230N11335 2020 48 NA CS LAURA 2020-08-23 00:00:00 TS 18.2667 -68.8000 PROVISIONAL 0 0 O_____________ nhc_working_bt AL132020 18.2000 -68.8000 TS 45 1004 0 120 120 60 1010 120 60 55 12 150 30 30 12 286
2020230N11335 2020 48 NA CS LAURA 2020-08-23 03:00:00 TS 18.4107 -69.4214 PROVISIONAL 11 0 P_____________ AL132020 18.3494 -69.4977 TS 45 1004 0 120 120 60 1010 120 60 12 165 30 30 13 283
2020230N11335 2020 48 NA NA LAURA 2020-08-23 06:00:00 TS 18.5667 -70.1667 PROVISIONAL 0 0 O_____________ nhc_working_bt AL132020 18.5000 -70.3000 TS 45 1004 0 120 120 60 1010 120 60 55 12 180 30 30 17 282
2020230N11335 2020 48 NA NA LAURA 2020-08-23 09:00:00 TS 18.7761 -71.1782 PROVISIONAL 0 0 P_____________ AL132020 18.6274 -71.2556 TS 45 1004 0 120 120 50 1009 130 55 12 195 120 21 282
2020230N11335 2020 48 NA NA LAURA 2020-08-23 12:00:00 TS 19.0000 -72.3000 PROVISIONAL 0 0 O_____________ nhc_working_bt AL132020 18.8000 -72.3000 TS 45 1004 0 120 120 40 1009 140 50 50 12 210 210 22 281
2020230N11335 2020 48 NA CS LAURA 2020-08-23 15:00:00 TS 19.1927 -73.4077 PROVISIONAL 44 44 P_____________ AL132020 19.0776 -73.3797 TS 47 1003 0 120 120 40 1009 145 40 12 255 210 20 281
2020230N11335 2020 48 NA CS LAURA 2020-08-23 18:00:00 TS 19.4000 -74.4000 PROVISIONAL 78 33 O_____________ nhc_working_bt AL132020 19.4000 -74.4000 TS 50 1002 0 120 120 40 30 1010 150 30 55 12 300 210 16 286
2020230N11335 2020 48 NA CS LAURA 2020-08-23 21:00:00 TS 19.6523 -75.0740 PROVISIONAL 22 0 P_____________ AL132020 19.7062 -75.2080 TS 52 1001 0 120 120 40 35 1009 150 27 12 330 210 14 293
2020230N11335 2020 48 NA CS LAURA 2020-08-24 00:00:00 TS 19.9333 -75.7667 PROVISIONAL 11 0 O_____________ nhc_working_bt AL132020 20.0000 -76.0000 TS 55 1000 0 120 120 40 40 40 1009 150 25 60 12 360 210 18 289
2020230N11335 2020 48 NA NA LAURA 2020-08-24 03:00:00 TS 20.2203 -76.8581 PROVISIONAL 0 0 P_____________ AL132020 20.2578 -76.9927 TS 52 1000 0 130 130 40 40 1009 150 25 12 345 22 285
2020230N11335 2020 48 NA CS LAURA 2020-08-24 06:00:00 TS 20.5000 -78.0000 PROVISIONAL 22 22 O_____________ nhc_working_bt AL132020 20.5000 -78.0000 TS 50 1000 0 140 140 40 40 1009 150 25 65 12 330 20 286
2020230N11335 2020 48 NA CS LAURA 2020-08-24 09:00:00 TS 20.7614 -78.8904 PROVISIONAL 47 47 P_____________ AL132020 20.7567 -78.8727 TS 50 1001 0 145 145 40 45 1009 150 25 12 330 17 287
2020230N11335 2020 48 NA CS LAURA 2020-08-24 12:00:00 TS 21.0000 -79.7000 PROVISIONAL 70 67 O_____________ nhc_working_bt AL132020 21.0000 -79.7000 TS 50 1002 0 150 150 40 50 1010 150 25 60 12 330 16 285
2020230N11335 2020 48 NA CS LAURA 2020-08-24 15:00:00 TS 21.1693 -80.5362 PROVISIONAL 76 67 P_____________ AL132020 21.1693 -80.5362 TS 50 1001 0 150 145 50 55 1010 150 27 12 330 16 284
2020230N11335 2020 48 NA CS LAURA 2020-08-24 18:00:00 TS 21.4000 -81.4000 PROVISIONAL 70 30 O_____________ nhc_working_bt AL132020 21.4000 -81.4000 TS 50 1001 0 150 140 60 60 1010 150 30 60 12 330 18 292
2020230N11335 2020 48 NA CS LAURA 2020-08-24 21:00:00 TS 21.8525 -82.3514 PROVISIONAL 30 10 P_____________ AL132020 21.8426 -82.3565 TS 52 999 0 150 140 60 60 1010 150 30 12 225 20 297
2020230N11335 2020 48 NA CS LAURA 2020-08-25 00:00:00 TS 22.3000 -83.3000 PROVISIONAL 0 0 O_____________ nhc_working_bt AL132020 22.3000 -83.3000 TS 55 998 0 150 140 60 60 1010 150 30 65 12 120 18 291
2020230N11335 2020 48 NA NA LAURA 2020-08-25 03:00:00 TS 22.5030 -84.1820 PROVISIONAL 0 0 P_____________ AL132020 22.5796 -84.1533 TS 57 996 0 150 140 60 60 1010 150 40 12 135 16 283
2020230N11335 2020 48 NA GM LAURA 2020-08-25 06:00:00 TS 22.6667 -84.9667 PROVISIONAL 76 76 O_____________ nhc_working_bt AL132020 22.8000 -84.9000 TS 60 995 0 150 140 30 90 60 60 20 1010 150 50 65 12 150 120 14 288
2020230N11335 2020 48 NA GM LAURA 2020-08-25 09:00:00 TS 22.9376 -85.6231 PROVISIONAL 127 127 P_____________ AL132020 23.0191 -85.5085 TS 62 992 0 150 140 45 90 60 60 30 1009 155 45 12 150 105 13 299
2020230N11335 2020 48 NA GM LAURA 2020-08-25 12:00:00 TS 23.3000 -86.2333 PROVISIONAL 199 199 O_____________ nhc_working_bt AL132020 23.3000 -86.1000 HU 65 990 1 150 140 60 90 60 60 40 40 40 1008 160 40 80 12 150 30 90 15 305
2020230N11335 2020 48 NA GM LAURA 2020-08-25 15:00:00 TS 23.7732 -86.9139 PROVISIONAL 257 257 P_____________ AL132020 23.7352 -86.8420 HU 67 990 1 150 140 60 90 60 60 40 40 1008 160 35 12 180 65 120 16 308
2020230N11335 2020 48 NA GM LAURA 2020-08-25 18:00:00 TS 24.2667 -87.6000 PROVISIONAL 313 312 O_____________ nhc_working_bt AL132020 24.2000 -87.6000 HU 70 990 1 150 140 60 90 60 60 40 40 1008 160 30 85 12 210 100 60 150 15 307
2020230N11335 2020 48 NA GM LAURA 2020-08-25 21:00:00 TS 24.6796 -88.2554 PROVISIONAL 357 357 P_____________ AL132020 24.5645 -88.2657 HU 72 986 1 150 140 60 90 60 60 40 40 1008 155 30 12 210 100 60 150 14 303
2020230N11335 2020 48 NA GM LAURA 2020-08-26 00:00:00 TS 25.0333 -88.9000 PROVISIONAL 392 392 O_____________ nhc_working_bt AL132020 24.9000 -88.9000 HU 75 983 1 150 140 60 90 60 60 30 40 40 40 1008 150 30 90 12 210 100 60 150 13 298
2020230N11335 2020 48 NA GM LAURA 2020-08-26 03:00:00 TS 25.3064 -89.5509 PROVISIONAL 416 390 P_____________ AL132020 25.2347 -89.5506 HU 82 980 1 150 140 60 90 80 75 30 50 50 45 1008 150 30 12 210 125 75 165 13 296
2020230N11335 2020 48 NA GM LAURA 2020-08-26 06:00:00 TS 25.6000 -90.2000 PROVISIONAL 390 346 O_____________ nhc_working_bt AL132020 25.6000 -90.2000 HU 90 978 2 150 140 60 90 100 90 30 60 60 50 20 40 1008 150 30 110 12 210 150 90 180 14 301
2020230N11335 2020 48 NA GM LAURA 2020-08-26 09:00:00 TS 26.0325 -90.8722 PROVISIONAL 346 294 P_____________ AL132020 26.0425 -90.8724 HU 95 970 2 150 140 60 90 100 90 30 60 60 50 20 40 1007 150 30 12 225 165 105 180 15 308
2020230N11335 2020 48 NA GM LAURA 2020-08-26 12:00:00 TS 26.5000 -91.5000 PROVISIONAL 296 268 O_____________ nhc_working_bt AL132020 26.5000 -91.5000 HU 100 963 3 150 140 60 90 100 90 30 60 60 50 20 40 1007 150 30 25 120 12 240 180 120 180 14 309
2020230N11335 2020 48 NA GM LAURA 2020-08-26 15:00:00 TS 26.8824 -92.0654 PROVISIONAL 272 246 P_____________ AL132020 26.8774 -92.0605 HU 110 957 3 165 145 70 95 95 90 40 60 55 50 25 40 1007 150 22 12 240 180 135 150 12 312
2020230N11335 2020 48 NA GM LAURA 2020-08-26 18:00:00 TS 27.3000 -92.5000 PROVISIONAL 246 193 O_____________ nhc_working_bt AL132020 27.3000 -92.5000 HU 120 952 4 180 150 80 100 90 90 50 60 50 50 30 40 1008 150 15 145 12 240 180 150 120 11 327
2020230N11335 2020 48 NA GM LAURA 2020-08-26 21:00:00 TS 27.8239 -92.7648 PROVISIONAL 195 135 P_____________ AL132020 27.8623 -92.8028 HU 125 945 4 180 150 80 100 90 90 50 60 50 50 30 40 1007 145 15 12 240 180 150 120 12 341
2020230N11335 2020 48 NA GM LAURA 2020-08-27 00:00:00 TS 28.4333 -92.9333 PROVISIONAL 135 69 O_____________ nhc_working_bt AL132020 28.5000 -93.0000 HU 130 938 4 180 150 80 100 90 90 50 60 50 50 30 40 1006 140 15 160 12 240 180 150 120 13 345
2020230N11335 2020 48 NA GM LAURA 2020-08-27 03:00:00 TS 29.0967 -93.1488 PROVISIONAL 69 0 P_____________ AL132020 29.1350 -93.1875 HU 130 938 4 150 150 80 90 75 90 50 55 45 50 30 35 1006 140 15 12 165 180 150 105 14 347
2020230N11335 2020 48 NA GM LAURA 2020-08-27 06:00:00 TS 29.8000 -93.3000 PROVISIONAL 0 0 O_____________ nhc_working_bt AL132020 29.8000 -93.3000 HU 130 938 4 120 150 80 80 60 90 50 50 40 50 30 30 1006 140 15 160 12 90 180 150 90 14 352
2020230N11335 2020 48 NA NA LAURA 2020-08-27 09:00:00 TS 30.4749 -93.3622 PROVISIONAL 0 0 P_____________ AL132020 30.4699 -93.3522 HU 107 954 3 100 150 65 70 55 65 40 40 35 40 22 25 1006 140 17 12 180 120 14 0
2020230N11335 2020 48 NA NA LAURA 2020-08-27 12:00:00 TS 31.2000 -93.3000 PROVISIONAL 0 0 O_____________ nhc_working_bt AL132020 31.2000 -93.3000 HU 85 970 2 80 150 50 60 50 40 30 30 30 30 15 20 1007 140 20 105 12 180 90 16 8
2020230N11335 2020 48 NA NA LAURA 2020-08-27 15:00:00 TS 32.0426 -93.0926 PROVISIONAL 0 0 P_____________ AL132020 32.0426 -93.1306 HU 70 979 1 80 115 40 50 40 35 15 15 7 10 1007 140 25 12 180 18 13
2020230N11335 2020 48 NA NA LAURA 2020-08-27 18:00:00 TS 32.9000 -92.8333 PROVISIONAL 0 0 O_____________ nhc_working_bt AL132020 32.9000 -92.9000 TS 55 988 0 80 80 30 40 30 30 1008 140 30 65 12 180 17 12
2020230N11335 2020 48 NA NA LAURA 2020-08-27 21:00:00 TS 33.7023 -92.6685 PROVISIONAL 0 0 P_____________ AL132020 33.7024 -92.7072 TS 45 990 0 80 80 30 40 1007 140 30 15 10
2020230N11335 2020 48 NA NA LAURA 2020-08-28 00:00:00 TS 34.4000 -92.5000 PROVISIONAL 0 0 O_____________ nhc_working_bt AL132020 34.4000 -92.5000 TS 35 993 0 80 80 30 40 1006 140 30 45 13 14
2020230N11335 2020 48 NA NA LAURA 2020-08-28 03:00:00 TS 34.9749 -92.2774 PROVISIONAL 0 0 P_____________ AL132020 34.9749 -92.2722 TS 30 995 -1 1007 142 47 11 22
2020230N11335 2020 48 NA NA LAURA 2020-08-28 06:00:00 TS 35.4000 -92.0000 PROVISIONAL 0 0 O_____________ nhc_working_bt AL132020 35.4000 -92.0000 TD 25 998 -1 1008 145 65 35 8 35
2020230N11335 2020 48 NA NA LAURA 2020-08-28 09:00:00 TS 35.6420 -91.7082 PROVISIONAL 0 0 P_____________ AL132020 35.6420 -91.7081 TD 25 999 -1 1008 172 82 8 49
2020230N11335 2020 48 NA NA LAURA 2020-08-28 12:00:00 TS 35.9000 -91.3000 PROVISIONAL 0 0 O_____________ nhc_working_bt AL132020 35.9000 -91.3000 TD 25 1001 -1 1008 200 100 35 11 44
2020230N11335 2020 48 NA NA LAURA 2020-08-28 15:00:00 TS 36.4495 -90.7388 PROVISIONAL 0 0 P_____________ AL132020 36.4493 -90.7487 TD 25 1002 -1 1008 150 100 15 44
2020230N11335 2020 48 NA NA LAURA 2020-08-28 18:00:00 TS 37.0000 -90.0000 PROVISIONAL 0 0 O_____________ nhc_working_bt AL132020 37.0000 -90.0000 TD 25 1003 -1 1008 100 100 30 15 56
2020230N11335 2020 48 NA NA LAURA 2020-08-28 21:00:00 TS 37.2694 -89.2151 PROVISIONAL 0 0 P_____________ AL132020 37.2701 -89.1386 TD 25 1003 -1 1008 125 100 16 71
2020230N11335 2020 48 NA NA LAURA 2020-08-29 00:00:00 TS 37.5000 -88.1333 PROVISIONAL 0 0 O_____________ nhc_working_bt AL132020 37.5000 -88.0000 TD 25 1004 -1 1008 150 100 35 21 74
2020230N11335 2020 48 NA NA LAURA 2020-08-29 03:00:00 TS 37.8627 -86.6062 PROVISIONAL 0 0 P_____________ AL132020 37.8614 -86.5091 TD 22 1004 -1 1006 97 70 27 73
2020230N11335 2020 48 NA NA LAURA 2020-08-29 06:00:00 DS 38.3000 -84.8000 PROVISIONAL 0 O_____________ nhc_working_bt AL132020 38.3000 -84.8000 LO 20 1004 -3 1005 45 40 30 73

IBTrACS Databaseについて

本データベースは、米国NOAAが公開する1842年以降の世界の熱帯低気圧のベストトラックデータアーカイブInternational Best Track Archive for Climate Stewardship (IBTrACS)を、ウェブで閲覧しやすい形式に変換したものです。

最終更新日:2021-12-03